Terminal Aerodrome Forecast
Issued by NWS Cleveland, OH

Home | Current Version | Previous Version | Graphics & Text | Print | Product List | Glossary On
Versions: 1 2 3 4 5 6 7 8 9 10 11 12 13 14 15 16 17
225
FTUS41 KCLE 060525
TAFERI
TAF
KERI 060525Z 0606/0706 15005KT P6SM SCT030
      TEMPO 0606/0610 BKN030
     FM061200 12012G20KT P6SM OVC050
     FM061800 12015G25KT P6SM -RA OVC030
     FM062100 12015G25KT 3SM -RA BR OVC008
     FM070300 21012KT P6SM OVC015=

USA.gov is the U.S. government's official web portal to all federal, state and local government web resources and services.